sensor_id;sensor_type;location;lat;lon;timestamp;pressure;altitude;pressure_sealevel;temperature;humidity
22096;BME280;24083;55.670;37.568;2022-12-18T00:00:05;98530.25;;;-0.82;nan
22096;BME280;24083;55.670;37.568;2022-12-18T00:02:39;98520.34;;;-1.13;nan
22096;BME280;24083;55.670;37.568;2022-12-18T00:08:28;98515.19;;;-1.08;nan
22096;BME280;24083;55.670;37.568;2022-12-18T00:13:45;98504.44;;;-1.43;nan
22096;BME280;24083;55.670;37.568;2022-12-18T00:16:20;98497.38;;;-1.19;nan
22096;BME280;24083;55.670;37.568;2022-12-18T00:18:50;98509.22;;;-1.09;nan
22096;BME280;24083;55.670;37.568;2022-12-18T00:25:09;98497.56;;;-1.38;nan
22096;BME280;24083;55.670;37.568;2022-12-18T00:30:36;98493.16;;;-1.20;nan
22096;BME280;24083;55.670;37.568;2022-12-18T00:33:27;98480.47;;;-1.32;nan
22096;BME280;24083;55.670;37.568;2022-12-18T00:36:25;98485.38;;;-1.11;nan
22096;BME280;24083;55.670;37.568;2022-12-18T00:38:56;98479.16;;;-1.74;nan
22096;BME280;24083;55.670;37.568;2022-12-18T00:41:22;98465.28;;;-1.48;nan
22096;BME280;24083;55.670;37.568;2022-12-18T00:44:31;98475.25;;;-1.20;nan
22096;BME280;24083;55.670;37.568;2022-12-18T00:46:57;98480.13;;;-1.01;nan
22096;BME280;24083;55.670;37.568;2022-12-18T00:49:48;98455.00;;;-1.42;nan
22096;BME280;24083;55.670;37.568;2022-12-18T00:52:14;98449.97;;;-1.51;nan
22096;BME280;24083;55.670;37.568;2022-12-18T00:54:40;98446.66;;;-1.59;nan
22096;BME280;24083;55.670;37.568;2022-12-18T00:57:06;98440.19;;;-1.98;nan
22096;BME280;24083;55.670;37.568;2022-12-18T00:59:58;98431.47;;;-1.76;nan
22096;BME280;24083;55.670;37.568;2022-12-18T01:02:27;98430.50;;;-1.61;nan
22096;BME280;24083;55.670;37.568;2022-12-18T01:04:53;98426.16;;;-1.56;nan
22096;BME280;24083;55.670;37.568;2022-12-18T01:07:19;98410.88;;;-1.59;nan
22096;BME280;24083;55.670;37.568;2022-12-18T01:09:45;98418.53;;;-1.58;nan
22096;BME280;24083;55.670;37.568;2022-12-18T01:12:11;98420.38;;;-1.71;nan
22096;BME280;24083;55.670;37.568;2022-12-18T01:18:34;98396.88;;;-2.12;nan
22096;BME280;24083;55.670;37.568;2022-12-18T01:21:31;98400.28;;;-2.13;nan
22096;BME280;24083;55.670;37.568;2022-12-18T01:23:57;98404.19;;;-1.73;nan
22096;BME280;24083;55.670;37.568;2022-12-18T01:26:24;98405.41;;;-2.13;nan
22096;BME280;24083;55.670;37.568;2022-12-18T01:28:59;98416.22;;;-1.84;nan
22096;BME280;24083;55.670;37.568;2022-12-18T01:31:31;98411.13;;;-1.87;nan
22096;BME280;24083;55.670;37.568;2022-12-18T01:34:00;98417.28;;;-2.10;nan
22096;BME280;24083;55.670;37.568;2022-12-18T01:36:29;98423.44;;;-2.36;nan
22096;BME280;24083;55.670;37.568;2022-12-18T01:38:56;98417.34;;;-2.18;nan
22096;BME280;24083;55.670;37.568;2022-12-18T01:41:33;98409.63;;;-2.10;nan
22096;BME280;24083;55.670;37.568;2022-12-18T01:47:18;98395.56;;;-2.64;nan
22096;BME280;24083;55.670;37.568;2022-12-18T01:50:07;98404.03;;;-2.62;nan
22096;BME280;24083;55.670;37.568;2022-12-18T01:52:34;98401.34;;;-2.37;nan
22096;BME280;24083;55.670;37.568;2022-12-18T01:55:04;98409.84;;;-2.38;nan
22096;BME280;24083;55.670;37.568;2022-12-18T01:58:15;98408.25;;;-2.55;nan
22096;BME280;24083;55.670;37.568;2022-12-18T02:00:46;98413.50;;;-2.76;nan
22096;BME280;24083;55.670;37.568;2022-12-18T02:03:12;98407.66;;;-2.92;nan
22096;BME280;24083;55.670;37.568;2022-12-18T02:06:01;98393.19;;;-2.92;nan
22096;BME280;24083;55.670;37.568;2022-12-18T02:17:54;98407.94;;;-2.10;nan
22096;BME280;24083;55.670;37.568;2022-12-18T02:24:40;98415.09;;;-2.60;nan
22096;BME280;24083;55.670;37.568;2022-12-18T02:27:12;98401.72;;;-3.02;nan
22096;BME280;24083;55.670;37.568;2022-12-18T02:37:57;98401.88;;;-3.36;nan
22096;BME280;24083;55.670;37.568;2022-12-18T02:57:40;98410.44;;;-3.68;nan
22096;BME280;24083;55.670;37.568;2022-12-18T03:03:11;98389.84;;;-3.03;nan
22096;BME280;24083;55.670;37.568;2022-12-18T03:15:25;98387.41;;;-3.33;nan
22096;BME280;24083;55.670;37.568;2022-12-18T03:18:33;98389.22;;;-3.63;nan
22096;BME280;24083;55.670;37.568;2022-12-18T03:21:10;98384.94;;;-3.59;nan
22096;BME280;24083;55.670;37.568;2022-12-18T03:24:06;98408.78;;;-3.91;nan
22096;BME280;24083;55.670;37.568;2022-12-18T03:26:49;98404.53;;;-3.80;nan
22096;BME280;24083;55.670;37.568;2022-12-18T03:29:24;98397.78;;;-3.98;nan
22096;BME280;24083;55.670;37.568;2022-12-18T03:31:55;98403.72;;;-4.10;nan
22096;BME280;24083;55.670;37.568;2022-12-18T03:34:45;98403.72;;;-4.07;nan
22096;BME280;24083;55.670;37.568;2022-12-18T03:37:14;98413.88;;;-4.16;nan
22096;BME280;24083;55.670;37.568;2022-12-18T03:39:44;98413.06;;;-4.10;nan
22096;BME280;24083;55.670;37.568;2022-12-18T03:42:27;98420.69;;;-4.09;nan
22096;BME280;24083;55.670;37.568;2022-12-18T03:45:34;98419.81;;;-3.81;nan
22096;BME280;24083;55.670;37.568;2022-12-18T03:48:38;98411.31;;;-3.87;nan
22096;BME280;24083;55.670;37.568;2022-12-18T03:51:16;98413.88;;;-3.88;nan
22096;BME280;24083;55.670;37.568;2022-12-18T03:54:05;98417.28;;;-3.86;nan
22096;BME280;24083;55.670;37.568;2022-12-18T03:56:53;98429.16;;;-4.07;nan
22096;BME280;24083;55.670;37.568;2022-12-18T03:59:23;98429.16;;;-4.13;nan
22096;BME280;24083;55.670;37.568;2022-12-18T04:02:18;98419.84;;;-4.09;nan
22096;BME280;24083;55.670;37.568;2022-12-18T04:05:01;98415.59;;;-4.27;nan
22096;BME280;24083;55.670;37.568;2022-12-18T04:07:30;98408.78;;;-3.82;nan
22096;BME280;24083;55.670;37.568;2022-12-18T04:09:58;98409.66;;;-4.29;nan
22096;BME280;24083;55.670;37.568;2022-12-18T04:12:56;98441.00;;;-3.68;nan
22096;BME280;24083;55.670;37.568;2022-12-18T04:15:54;98451.22;;;-3.81;nan
22096;BME280;24083;55.670;37.568;2022-12-18T04:18:27;98463.97;;;-3.98;nan
22096;BME280;24083;55.670;37.568;2022-12-18T04:20:56;98469.91;;;-3.94;nan
22096;BME280;24083;55.670;37.568;2022-12-18T04:23:22;98461.41;;;-3.93;nan
22096;BME280;24083;55.670;37.568;2022-12-18T04:25:48;98471.59;;;-3.71;nan
22096;BME280;24083;55.670;37.568;2022-12-18T04:28:22;98461.41;;;-3.71;nan
22096;BME280;24083;55.670;37.568;2022-12-18T04:30:49;98460.56;;;-3.94;nan
22096;BME280;24083;55.670;37.568;2022-12-18T04:33:18;98464.78;;;-4.19;nan
22096;BME280;24083;55.670;37.568;2022-12-18T04:35:44;98475.81;;;-4.14;nan
22096;BME280;24083;55.670;37.568;2022-12-18T04:38:10;98493.69;;;-3.77;nan
22096;BME280;24083;55.670;37.568;2022-12-18T04:40:49;98503.88;;;-3.80;nan
22096;BME280;24083;55.670;37.568;2022-12-18T04:43:22;98514.06;;;-3.80;nan
22096;BME280;24083;55.670;37.568;2022-12-18T04:45:51;98508.09;;;-3.77;nan
22096;BME280;24083;55.670;37.568;2022-12-18T04:48:17;98508.94;;;-3.70;nan
22096;BME280;24083;55.670;37.568;2022-12-18T04:50:46;98505.56;;;-3.88;nan
22096;BME280;24083;55.670;37.568;2022-12-18T04:53:12;98511.44;;;-4.20;nan
22096;BME280;24083;55.670;37.568;2022-12-18T04:55:38;98517.44;;;-3.90;nan
22096;BME280;24083;55.670;37.568;2022-12-18T04:58:29;98525.06;;;-3.82;nan
22096;BME280;24083;55.670;37.568;2022-12-18T05:00:55;98497.06;;;-4.24;nan
22096;BME280;24083;55.670;37.568;2022-12-18T05:03:25;98524.94;;;-4.55;nan
22096;BME280;24083;55.670;37.568;2022-12-18T05:05:51;98508.94;;;-4.05;nan
22096;BME280;24083;55.670;37.568;2022-12-18T05:08:45;98512.22;;;-4.58;nan
22096;BME280;24083;55.670;37.568;2022-12-18T05:11:13;98519.13;;;-3.98;nan
22096;BME280;24083;55.670;37.568;2022-12-18T05:13:42;98522.50;;;-4.12;nan
22096;BME280;24083;55.670;37.568;2022-12-18T05:16:08;98536.09;;;-4.11;nan
22096;BME280;24083;55.670;37.568;2022-12-18T05:18:59;98517.44;;;-3.71;nan
22096;BME280;24083;55.670;37.568;2022-12-18T05:21:31;98532.69;;;-3.89;nan
22096;BME280;24083;55.670;37.568;2022-12-18T05:24:43;98568.13;;;-4.71;nan
22096;BME280;24083;55.670;37.568;2022-12-18T05:27:08;98553.09;;;-3.87;nan
22096;BME280;24083;55.670;37.568;2022-12-18T05:33:22;98547.97;;;-4.06;nan
22096;BME280;24083;55.670;37.568;2022-12-18T05:35:57;98556.47;;;-4.04;nan
22096;BME280;24083;55.670;37.568;2022-12-18T05:38:24;98570.91;;;-3.99;nan
22096;BME280;24083;55.670;37.568;2022-12-18T05:40:52;98564.94;;;-4.08;nan
22096;BME280;24083;55.670;37.568;2022-12-18T05:43:20;98566.59;;;-4.19;nan
22096;BME280;24083;55.670;37.568;2022-12-18T05:45:47;98580.25;;;-3.95;nan
22096;BME280;24083;55.670;37.568;2022-12-18T05:48:40;98587.88;;;-3.91;nan
22096;BME280;24083;55.670;37.568;2022-12-18T05:51:09;98588.75;;;-3.84;nan
22096;BME280;24083;55.670;37.568;2022-12-18T05:54:44;98592.09;;;-4.04;nan
22096;BME280;24083;55.670;37.568;2022-12-18T06:04:45;98581.91;;;-4.04;nan
22096;BME280;24083;55.670;37.568;2022-12-18T06:10:57;98615.78;;;-4.36;nan
22096;BME280;24083;55.670;37.568;2022-12-18T06:13:23;98614.09;;;-4.30;nan
22096;BME280;24083;55.670;37.568;2022-12-18T06:15:49;98614.97;;;-4.16;nan
22096;BME280;24083;55.670;37.568;2022-12-18T06:18:40;98616.63;;;-4.34;nan
22096;BME280;24083;55.670;37.568;2022-12-18T06:21:19;98627.59;;;-4.44;nan
22096;BME280;24083;55.670;37.568;2022-12-18T06:23:45;98623.41;;;-4.33;nan
22096;BME280;24083;55.670;37.568;2022-12-18T06:26:20;98638.78;;;-4.05;nan
22096;BME280;24083;55.670;37.568;2022-12-18T06:28:50;98637.09;;;-4.03;nan
22096;BME280;24083;55.670;37.568;2022-12-18T06:31:16;98636.88;;;-4.52;nan
22096;BME280;24083;55.670;37.568;2022-12-18T06:38:37;98651.59;;;-3.80;nan
22096;BME280;24083;55.670;37.568;2022-12-18T06:41:14;98647.19;;;-4.18;nan
22096;BME280;24083;55.670;37.568;2022-12-18T06:43:41;98682.91;;;-4.04;nan
22096;BME280;24083;55.670;37.568;2022-12-18T06:46:19;98673.63;;;-3.88;nan
22096;BME280;24083;55.670;37.568;2022-12-18T06:48:49;98675.19;;;-4.27;nan
22096;BME280;24083;55.670;37.568;2022-12-18T06:52:25;98702.34;;;-4.17;nan
22096;BME280;24083;55.670;37.568;2022-12-18T06:54:51;98694.78;;;-4.06;nan
22096;BME280;24083;55.670;37.568;2022-12-18T06:57:43;98704.19;;;-3.91;nan
22096;BME280;24083;55.670;37.568;2022-12-18T07:04:08;98698.19;;;-3.99;nan
22096;BME280;24083;55.670;37.568;2022-12-18T07:10:16;98705.91;;;-3.81;nan
22096;BME280;24083;55.670;37.568;2022-12-18T07:12:44;98695.63;;;-4.03;nan
22096;BME280;24083;55.670;37.568;2022-12-18T07:15:17;98710.94;;;-3.96;nan
22096;BME280;24083;55.670;37.568;2022-12-18T07:17:43;98716.09;;;-3.81;nan
22096;BME280;24083;55.670;37.568;2022-12-18T07:20:09;98732.16;;;-4.02;nan
22096;BME280;24083;55.670;37.568;2022-12-18T07:22:35;98739.84;;;-3.85;nan
22096;BME280;24083;55.670;37.568;2022-12-18T07:25:26;98741.63;;;-3.62;nan
22096;BME280;24083;55.670;37.568;2022-12-18T07:30:45;98751.69;;;-3.93;nan
22096;BME280;24083;55.670;37.568;2022-12-18T07:33:10;98746.56;;;-3.99;nan
22096;BME280;24083;55.670;37.568;2022-12-18T07:35:37;98743.19;;;-3.98;nan
22096;BME280;24083;55.670;37.568;2022-12-18T07:38:12;98745.69;;;-4.05;nan
22096;BME280;24083;55.670;37.568;2022-12-18T07:40:38;98753.03;;;-4.59;nan
22096;BME280;24083;55.670;37.568;2022-12-18T07:43:03;98749.91;;;-4.13;nan
22096;BME280;24083;55.670;37.568;2022-12-18T07:45:43;98752.34;;;-4.33;nan
22096;BME280;24083;55.670;37.568;2022-12-18T07:48:50;98745.88;;;-3.63;nan
22096;BME280;24083;55.670;37.568;2022-12-18T07:51:18;98748.28;;;-3.98;nan
22096;BME280;24083;55.670;37.568;2022-12-18T07:53:46;98765.38;;;-3.69;nan
22096;BME280;24083;55.670;37.568;2022-12-18T07:56:13;98774.75;;;-3.64;nan
22096;BME280;24083;55.670;37.568;2022-12-18T08:01:55;98770.44;;;-3.82;nan
22096;BME280;24083;55.670;37.568;2022-12-18T08:04:21;98765.28;;;-3.91;nan
22096;BME280;24083;55.670;37.568;2022-12-18T08:10:27;98785.34;;;-4.44;nan
22096;BME280;24083;55.670;37.568;2022-12-18T08:12:53;98782.13;;;-4.15;nan
22096;BME280;24083;55.670;37.568;2022-12-18T08:15:18;98800.94;;;-3.91;nan
22096;BME280;24083;55.670;37.568;2022-12-18T08:21:32;98822.13;;;-3.94;nan
22096;BME280;24083;55.670;37.568;2022-12-18T08:27:43;98819.63;;;-3.92;nan
22096;BME280;24083;55.670;37.568;2022-12-18T08:30:10;98835.72;;;-3.92;nan
22096;BME280;24083;55.670;37.568;2022-12-18T08:36:19;98843.16;;;-4.27;nan
22096;BME280;24083;55.670;37.568;2022-12-18T08:42:44;98836.78;;;-3.54;nan
22096;BME280;24083;55.670;37.568;2022-12-18T08:45:36;98838.59;;;-3.16;nan
22096;BME280;24083;55.670;37.568;2022-12-18T08:48:12;98841.09;;;-3.33;nan
22096;BME280;24083;55.670;37.568;2022-12-18T08:57:58;98836.63;;;-3.85;nan
22096;BME280;24083;55.670;37.568;2022-12-18T09:20:16;98880.13;;;-3.43;nan
22096;BME280;24083;55.670;37.568;2022-12-18T09:22:42;98885.22;;;-3.43;nan
22096;BME280;24083;55.670;37.568;2022-12-18T09:25:30;98904.91;;;-3.22;nan
22096;BME280;24083;55.670;37.568;2022-12-18T09:40:48;98914.94;;;-3.54;nan
22096;BME280;24083;55.670;37.568;2022-12-18T11:14:42;99017.16;;;-3.03;nan
22096;BME280;24083;55.670;37.568;2022-12-18T11:17:29;99010.13;;;-3.45;nan
22096;BME280;24083;55.670;37.568;2022-12-18T11:20:31;99015.34;;;-3.29;nan
22096;BME280;24083;55.670;37.568;2022-12-18T11:24:10;98993.81;;;-3.65;nan
22096;BME280;24083;55.670;37.568;2022-12-18T11:26:34;99015.13;;;-3.57;nan
22096;BME280;24083;55.670;37.568;2022-12-18T11:29:15;99014.56;;;-3.14;nan
22096;BME280;24083;55.670;37.568;2022-12-18T11:33:13;99029.81;;;-3.22;nan
22096;BME280;24083;55.670;37.568;2022-12-18T11:55:47;99066.13;;;-3.51;nan
22096;BME280;24083;55.670;37.568;2022-12-18T11:59:02;99074.94;;;-3.08;nan
22096;BME280;24083;55.670;37.568;2022-12-18T12:06:31;99087.22;;;-3.67;nan
22096;BME280;24083;55.670;37.568;2022-12-18T12:36:23;99145.97;;;-3.52;nan
22096;BME280;24083;55.670;37.568;2022-12-18T12:38:55;99150.31;;;-3.45;nan
22096;BME280;24083;55.670;37.568;2022-12-18T12:41:33;99156.47;;;-3.18;nan
22096;BME280;24083;55.670;37.568;2022-12-18T12:47:41;99164.97;;;-3.16;nan
22096;BME280;24083;55.670;37.568;2022-12-18T12:50:30;99169.81;;;-3.47;nan
22096;BME280;24083;55.670;37.568;2022-12-18T12:53:32;99180.63;;;-3.73;nan
22096;BME280;24083;55.670;37.568;2022-12-18T12:56:01;99187.72;;;-3.39;nan
22096;BME280;24083;55.670;37.568;2022-12-18T13:08:32;99215.72;;;-3.45;nan
22096;BME280;24083;55.670;37.568;2022-12-18T13:12:02;99215.97;;;-3.19;nan
22096;BME280;24083;55.670;37.568;2022-12-18T13:15:20;99227.44;;;-3.61;nan
22096;BME280;24083;55.670;37.568;2022-12-18T13:17:47;99220.66;;;-3.59;nan
22096;BME280;24083;55.670;37.568;2022-12-18T13:30:53;99237.66;;;-3.58;nan
22096;BME280;24083;55.670;37.568;2022-12-18T13:33:36;99248.88;;;-3.45;nan
22096;BME280;24083;55.670;37.568;2022-12-18T13:53:16;99305.66;;;-3.54;nan
22096;BME280;24083;55.670;37.568;2022-12-18T14:04:29;99311.94;;;-3.25;nan
22096;BME280;24083;55.670;37.568;2022-12-18T14:25:31;99357.00;;;-3.26;nan
22096;BME280;24083;55.670;37.568;2022-12-18T14:28:22;99367.00;;;-3.41;nan
22096;BME280;24083;55.670;37.568;2022-12-18T14:30:49;99373.56;;;-3.59;nan
22096;BME280;24083;55.670;37.568;2022-12-18T14:37:00;99378.94;;;-3.37;nan
22096;BME280;24083;55.670;37.568;2022-12-18T14:39:36;99387.88;;;-3.67;nan
22096;BME280;24083;55.670;37.568;2022-12-18T14:42:28;99397.59;;;-3.41;nan
22096;BME280;24083;55.670;37.568;2022-12-18T14:48:41;99401.41;;;-3.73;nan
22096;BME280;24083;55.670;37.568;2022-12-18T14:51:27;99410.06;;;-3.60;nan
22096;BME280;24083;55.670;37.568;2022-12-18T14:54:05;99409.59;;;-3.93;nan
22096;BME280;24083;55.670;37.568;2022-12-18T14:57:35;99420.44;;;-4.05;nan
22096;BME280;24083;55.670;37.568;2022-12-18T15:00:40;99419.44;;;-3.59;nan
22096;BME280;24083;55.670;37.568;2022-12-18T15:04:26;99437.97;;;-3.69;nan
22096;BME280;24083;55.670;37.568;2022-12-18T15:07:21;99450.34;;;-3.93;nan
22096;BME280;24083;55.670;37.568;2022-12-18T15:10:12;99439.13;;;-4.06;nan
22096;BME280;24083;55.670;37.568;2022-12-18T15:25:31;99474.13;;;-4.43;nan
22096;BME280;24083;55.670;37.568;2022-12-18T15:35:33;99456.31;;;-3.92;nan
22096;BME280;24083;55.670;37.568;2022-12-18T15:38:29;99473.09;;;-4.04;nan
22096;BME280;24083;55.670;37.568;2022-12-18T15:45:21;99473.91;;;-3.51;nan
22096;BME280;24083;55.670;37.568;2022-12-18T15:47:46;99468.78;;;-3.54;nan
22096;BME280;24083;55.670;37.568;2022-12-18T15:51:46;99481.31;;;-3.66;nan
22096;BME280;24083;55.670;37.568;2022-12-18T15:54:16;99476.44;;;-4.08;nan
22096;BME280;24083;55.670;37.568;2022-12-18T16:04:31;99490.41;;;-3.84;nan
22096;BME280;24083;55.670;37.568;2022-12-18T16:11:48;99520.66;;;-4.04;nan
22096;BME280;24083;55.670;37.568;2022-12-18T16:14:45;99515.56;;;-4.03;nan
22096;BME280;24083;55.670;37.568;2022-12-18T16:22:44;99535.66;;;-4.18;nan
22096;BME280;24083;55.670;37.568;2022-12-18T16:25:29;99530.84;;;-4.03;nan
22096;BME280;24083;55.670;37.568;2022-12-18T16:31:08;99548.00;;;-4.38;nan
22096;BME280;24083;55.670;37.568;2022-12-18T16:33:33;99556.38;;;-4.87;nan
22096;BME280;24083;55.670;37.568;2022-12-18T16:36:17;99561.63;;;-4.79;nan
22096;BME280;24083;55.670;37.568;2022-12-18T16:57:12;99608.38;;;-5.47;nan
22096;BME280;24083;55.670;37.568;2022-12-18T17:03:33;99590.06;;;-5.69;nan
22096;BME280;24083;55.670;37.568;2022-12-18T17:09:52;99604.31;;;-6.09;nan
22096;BME280;24083;55.670;37.568;2022-12-18T17:16:46;99610.53;;;-5.63;nan
22096;BME280;24083;55.670;37.568;2022-12-18T17:31:21;99638.84;;;-6.74;nan
22096;BME280;24083;55.670;37.568;2022-12-18T17:33:57;99634.31;;;-6.25;nan
22096;BME280;24083;55.670;37.568;2022-12-18T17:36:25;99640.59;;;-7.01;nan
22096;BME280;24083;55.670;37.568;2022-12-18T17:38:57;99637.88;;;-7.07;nan
22096;BME280;24083;55.670;37.568;2022-12-18T17:45:41;99664.50;;;-6.92;nan
22096;BME280;24083;55.670;37.568;2022-12-18T17:48:14;99656.94;;;-7.18;nan
22096;BME280;24083;55.670;37.568;2022-12-18T17:50:41;99666.03;;;-6.97;nan
22096;BME280;24083;55.670;37.568;2022-12-18T17:53:07;99672.63;;;-7.28;nan
22096;BME280;24083;55.670;37.568;2022-12-18T17:55:33;99675.28;;;-7.25;nan
22096;BME280;24083;55.670;37.568;2022-12-18T17:57:59;99671.72;;;-6.77;nan
22096;BME280;24083;55.670;37.568;2022-12-18T18:00:26;99675.78;;;-7.10;nan
22096;BME280;24083;55.670;37.568;2022-12-18T18:06:21;99688.69;;;-6.75;nan
22096;BME280;24083;55.670;37.568;2022-12-18T18:08:50;99681.53;;;-7.16;nan
22096;BME280;24083;55.670;37.568;2022-12-18T18:11:23;99702.47;;;-6.66;nan
22096;BME280;24083;55.670;37.568;2022-12-18T18:14:17;99694.31;;;-7.11;nan
22096;BME280;24083;55.670;37.568;2022-12-18T18:21:13;99716.44;;;-7.07;nan
22096;BME280;24083;55.670;37.568;2022-12-18T18:27:31;99720.28;;;-7.68;nan
22096;BME280;24083;55.670;37.568;2022-12-18T18:33:38;99736.22;;;-7.47;nan
22096;BME280;24083;55.670;37.568;2022-12-18T18:43:56;99751.97;;;-8.25;nan
22096;BME280;24083;55.670;37.568;2022-12-18T18:46:27;99746.50;;;-8.13;nan
22096;BME280;24083;55.670;37.568;2022-12-18T18:48:55;99757.09;;;-8.01;nan
22096;BME280;24083;55.670;37.568;2022-12-18T18:51:36;99758.31;;;-7.90;nan
22096;BME280;24083;55.670;37.568;2022-12-18T18:54:08;99772.59;;;-8.37;nan
22096;BME280;24083;55.670;37.568;2022-12-18T18:56:36;99768.81;;;-8.03;nan
22096;BME280;24083;55.670;37.568;2022-12-18T18:59:02;99766.16;;;-8.29;nan
22096;BME280;24083;55.670;37.568;2022-12-18T19:01:28;99769.50;;;-8.30;nan
22096;BME280;24083;55.670;37.568;2022-12-18T19:03:55;99793.78;;;-8.12;nan
22096;BME280;24083;55.670;37.568;2022-12-18T19:06:30;99797.31;;;-7.84;nan
22096;BME280;24083;55.670;37.568;2022-12-18T19:09:22;99808.66;;;-8.64;nan
22096;BME280;24083;55.670;37.568;2022-12-18T19:18:22;99809.75;;;-8.13;nan
22096;BME280;24083;55.670;37.568;2022-12-18T19:21:05;99826.53;;;-8.81;nan
22096;BME280;24083;55.670;37.568;2022-12-18T19:56:29;99871.03;;;-8.42;nan
22096;BME280;24083;55.670;37.568;2022-12-18T19:59:23;99862.84;;;-8.98;nan
22096;BME280;24083;55.670;37.568;2022-12-18T20:09:57;99883.03;;;-8.59;nan
22096;BME280;24083;55.670;37.568;2022-12-18T20:18:41;99898.13;;;-9.01;nan
22096;BME280;24083;55.670;37.568;2022-12-18T20:34:41;99910.19;;;-8.94;nan
22096;BME280;24083;55.670;37.568;2022-12-18T21:01:24;99920.72;;;-8.85;nan
22096;BME280;24083;55.670;37.568;2022-12-18T21:03:52;99926.59;;;-9.05;nan
22096;BME280;24083;55.670;37.568;2022-12-18T21:09:34;99931.09;;;-9.18;nan
22096;BME280;24083;55.670;37.568;2022-12-18T21:25:38;99945.41;;;-9.36;nan
22096;BME280;24083;55.670;37.568;2022-12-18T21:28:05;99939.47;;;-9.19;nan
22096;BME280;24083;55.670;37.568;2022-12-18T21:51:56;99956.69;;;-9.84;nan
22096;BME280;24083;55.670;37.568;2022-12-18T22:17:03;99988.06;;;-9.79;nan
22096;BME280;24083;55.670;37.568;2022-12-18T22:20:03;100004.25;;;-10.10;nan
22096;BME280;24083;55.670;37.568;2022-12-18T22:26:17;99986.56;;;-9.57;nan
22096;BME280;24083;55.670;37.568;2022-12-18T22:28:45;99987.81;;;-9.29;nan
22096;BME280;24083;55.670;37.568;2022-12-18T22:39:01;99984.78;;;-9.94;nan
22096;BME280;24083;55.670;37.568;2022-12-18T22:52:17;100016.19;;;-10.06;nan
22096;BME280;24083;55.670;37.568;2022-12-18T22:54:44;100011.03;;;-9.91;nan
22096;BME280;24083;55.670;37.568;2022-12-18T23:01:13;100004.00;;;-9.80;nan
22096;BME280;24083;55.670;37.568;2022-12-18T23:03:41;99996.38;;;-9.63;nan
22096;BME280;24083;55.670;37.568;2022-12-18T23:06:12;100013.31;;;-9.95;nan
22096;BME280;24083;55.670;37.568;2022-12-18T23:08:38;100017.38;;;-9.99;nan
22096;BME280;24083;55.670;37.568;2022-12-18T23:11:04;100034.59;;;-10.25;nan
22096;BME280;24083;55.670;37.568;2022-12-18T23:13:40;100029.47;;;-10.10;nan
22096;BME280;24083;55.670;37.568;2022-12-18T23:16:32;100027.88;;;-10.08;nan
22096;BME280;24083;55.670;37.568;2022-12-18T23:19:25;100018.84;;;-10.03;nan
22096;BME280;24083;55.670;37.568;2022-12-18T23:22:16;100022.19;;;-10.04;nan
22096;BME280;24083;55.670;37.568;2022-12-18T23:24:43;100035.47;;;-9.55;nan
22096;BME280;24083;55.670;37.568;2022-12-18T23:27:10;100052.25;;;-9.90;nan
22096;BME280;24083;55.670;37.568;2022-12-18T23:29:40;100026.09;;;-9.92;nan
22096;BME280;24083;55.670;37.568;2022-12-18T23:32:06;100034.75;;;-10.22;nan
22096;BME280;24083;55.670;37.568;2022-12-18T23:34:33;100029.09;;;-9.47;nan
22096;BME280;24083;55.670;37.568;2022-12-18T23:37:00;100043.53;;;-9.26;nan
22096;BME280;24083;55.670;37.568;2022-12-18T23:39:28;100046.41;;;-9.36;nan
22096;BME280;24083;55.670;37.568;2022-12-18T23:42:19;100036.16;;;-9.40;nan
22096;BME280;24083;55.670;37.568;2022-12-18T23:44:51;100057.09;;;-9.42;nan
22096;BME280;24083;55.670;37.568;2022-12-18T23:47:46;100041.66;;;-9.30;nan
22096;BME280;24083;55.670;37.568;2022-12-18T23:50:12;100075.59;;;-9.94;nan
22096;BME280;24083;55.670;37.568;2022-12-18T23:55:55;100073.78;;;-9.80;nan
22096;BME280;24083;55.670;37.568;2022-12-18T23:58:35;100062.09;;;-9.78;nan
